Time,TemperatureF,DewpointF,PressureIn,WindDirection,WindDirectionDegrees,WindSpeedMPH,WindSpeedGustMPH,Humidity,HourlyPrecipIn,Conditions,Clouds,dailyrainin,SoftwareType,DateUTC
2013-06-08 00:00:00,46.8,43.1,29.84,SSE,161,0.0,0.0,87,0.00,,---,0.00,VWS V14.01,2013-06-08 05:00:00,
2013-06-08 00:30:00,46.2,43.1,29.84,SSE,161,0.0,0.0,89,0.00,,---,0.00,VWS V14.01,2013-06-08 05:30:00,
2013-06-08 01:00:00,45.4,42.1,29.83,SSE,161,0.0,0.0,88,0.00,,---,0.00,VWS V14.01,2013-06-08 06:00:00,
2013-06-08 01:30:00,45.3,42.5,29.83,SSE,161,0.0,0.0,90,0.00,,---,0.00,VWS V14.01,2013-06-08 06:30:00,
2013-06-08 02:00:00,45.2,42.7,29.83,SSE,161,0.0,0.0,91,0.00,,---,0.00,VWS V14.01,2013-06-08 07:00:00,
2013-06-08 02:30:00,44.7,42.2,29.83,SSE,161,0.0,0.0,91,0.00,,---,0.00,VWS V14.01,2013-06-08 07:30:00,
2013-06-08 03:00:00,44.0,41.8,29.84,SSE,161,0.0,0.0,92,0.00,,---,0.00,VWS V14.01,2013-06-08 08:00:00,
2013-06-08 03:30:00,44.2,42.0,29.84,SSE,161,0.0,0.0,92,0.00,,---,0.00,VWS V14.01,2013-06-08 08:30:00,
2013-06-08 04:00:00,44.3,42.1,29.84,SSE,161,0.0,0.0,92,0.00,,---,0.00,VWS V14.01,2013-06-08 09:00:00,
2013-06-08 04:30:00,44.1,42.2,29.85,SSE,161,0.0,0.0,93,0.00,,---,0.00,VWS V14.01,2013-06-08 09:30:00,
2013-06-08 05:00:00,44.3,42.4,29.85,SSE,161,0.0,0.0,93,0.00,,---,0.00,VWS V14.01,2013-06-08 10:00:00,
2013-06-08 05:30:00,44.7,42.8,29.85,SSE,161,0.0,0.0,93,0.00,,---,0.00,VWS V14.01,2013-06-08 10:30:00,
2013-06-08 06:00:00,48.2,47.7,29.85,SSE,161,0.0,0.0,98,0.00,,---,0.00,VWS V14.01,2013-06-08 11:00:00,
2013-06-08 06:30:00,50.8,47.4,29.85,SSE,161,0.0,0.0,88,0.00,,---,0.00,VWS V14.01,2013-06-08 11:30:00,
2013-06-08 07:00:00,53.3,47.3,29.86,SSE,161,0.0,0.0,80,0.00,,---,0.00,VWS V14.01,2013-06-08 12:00:00,
2013-06-08 07:30:00,56.2,47.7,29.86,SSE,161,0.0,0.0,73,0.00,,---,0.00,VWS V14.01,2013-06-08 12:30:00,
2013-06-08 08:00:00,58.4,48.3,29.87,NNE,32,0.0,0.0,69,0.00,,---,0.00,VWS V14.01,2013-06-08 13:00:00,
2013-06-08 08:30:00,60.0,46.5,29.88,North,351,0.0,3.0,61,0.00,,---,0.00,VWS V14.01,2013-06-08 13:30:00,
2013-06-08 09:00:00,60.9,46.9,29.90,North,360,3.0,5.0,60,0.00,,---,0.00,VWS V14.01,2013-06-08 14:00:00,
2013-06-08 09:30:00,61.8,46.4,29.89,North,355,1.0,6.0,57,0.00,,---,0.00,VWS V14.01,2013-06-08 14:30:00,
2013-06-08 10:00:00,64.0,48.5,29.88,North,351,0.0,5.0,57,0.00,,---,0.00,VWS V14.01,2013-06-08 15:00:00,
2013-06-08 10:30:00,65.3,47.2,29.88,NNW,340,1.0,6.0,52,0.00,,---,0.00,VWS V14.01,2013-06-08 15:30:00,
2013-06-08 11:00:00,66.3,48.2,29.90,NE,55,0.0,6.0,52,0.00,,---,0.00,VWS V14.01,2013-06-08 16:00:00,
2013-06-08 11:30:00,66.9,47.1,29.90,NNW,347,3.0,5.0,49,0.00,,---,0.00,VWS V14.01,2013-06-08 16:30:00,
2013-06-08 12:00:00,68.3,47.9,29.90,NNW,338,0.0,6.0,48,0.00,,---,0.00,VWS V14.01,2013-06-08 17:00:00,
2013-06-08 12:30:00,69.8,46.9,29.89,WNW,298,0.0,7.0,44,0.00,,---,0.00,VWS V14.01,2013-06-08 17:30:00,
2013-06-08 13:00:00,69.1,49.2,29.89,NW,317,0.0,7.0,49,0.00,,---,0.00,VWS V14.01,2013-06-08 18:00:00,
2013-06-08 13:30:00,69.9,50.4,29.88,NNW,329,0.0,7.0,50,0.00,,---,0.00,VWS V14.01,2013-06-08 18:30:00,
2013-06-08 14:00:00,68.9,53.5,29.88,WNW,292,3.0,7.0,58,0.00,,---,0.00,VWS V14.01,2013-06-08 19:00:00,
2013-06-08 14:30:00,70.3,54.4,29.88,SSE,151,0.0,6.0,57,0.00,,---,0.00,VWS V14.01,2013-06-08 19:30:00,
2013-06-08 15:00:00,70.0,51.1,29.88,ENE,78,2.0,7.0,51,0.00,,---,0.00,VWS V14.01,2013-06-08 20:00:00,
2013-06-08 15:30:00,69.5,49.0,29.88,WNW,299,0.0,9.0,48,0.00,,---,0.00,VWS V14.01,2013-06-08 20:30:00,
2013-06-08 16:00:00,67.7,47.3,29.89,South,175,0.0,4.0,48,0.00,,---,0.00,VWS V14.01,2013-06-08 21:00:00,
2013-06-08 16:30:00,67.1,48.4,29.90,SE,129,2.0,4.0,51,0.00,,---,0.00,VWS V14.01,2013-06-08 21:30:00,
2013-06-08 17:00:00,64.5,48.0,29.90,SE,130,0.0,7.0,55,0.00,,---,0.00,VWS V14.01,2013-06-08 22:00:00,
2013-06-08 17:30:00,63.3,48.3,29.91,SSE,153,0.0,9.0,58,0.00,,---,0.00,VWS V14.01,2013-06-08 22:30:00,
2013-06-08 18:00:00,61.9,48.3,29.91,SSW,211,0.0,6.0,61,0.00,,---,0.00,VWS V14.01,2013-06-08 23:00:00,
2013-06-08 18:30:00,61.8,47.8,29.92,SE,133,0.0,4.0,60,0.00,,---,0.00,VWS V14.01,2013-06-08 23:30:00,
2013-06-08 19:00:00,59.6,47.8,29.93,ESE,113,0.0,7.0,65,0.00,,---,0.00,VWS V14.01,2013-06-09 00:00:00,
2013-06-08 19:30:00,57.7,48.0,29.92,ESE,117,0.0,2.0,70,0.00,,---,0.00,VWS V14.01,2013-06-09 00:30:00,
2013-06-08 20:00:00,57.2,48.3,29.92,ESE,121,0.0,5.0,72,0.00,,---,0.00,VWS V14.01,2013-06-09 01:00:00,
2013-06-08 20:30:00,55.8,48.0,29.92,ESE,121,0.0,1.0,75,0.00,,---,0.00,VWS V14.01,2013-06-09 01:30:00,
2013-06-08 21:00:00,54.5,48.1,29.92,ESE,119,0.0,0.0,79,0.00,,---,0.00,VWS V14.01,2013-06-09 02:00:00,
2013-06-08 21:30:00,53.5,48.5,29.92,SE,140,0.0,0.0,83,0.00,,---,0.00,VWS V14.01,2013-06-09 02:30:00,
2013-06-08 22:00:00,53.0,48.3,29.93,SE,140,0.0,0.0,84,0.00,,---,0.00,VWS V14.01,2013-06-09 03:00:00,
2013-06-08 22:30:00,52.9,48.5,29.92,SE,128,0.0,2.0,85,0.00,,---,0.00,VWS V14.01,2013-06-09 03:30:00,
2013-06-08 23:00:00,53.0,48.3,29.94,ESE,123,0.0,2.0,84,0.00,,---,0.00,VWS V14.01,2013-06-09 04:00:00,
2013-06-08 23:30:00,52.6,48.2,29.93,ESE,123,0.0,0.0,85,0.00,,---,0.00,VWS V14.01,2013-06-09 04:30:00,